Terminal Aerodrome Forecast
Issued by NWS Wilmington, OH

Current Version | Previous Version | Graphics & Text | Print | Product List | Glossary On
Versions: 1 2 3 4 5 6 7 8 9 10 11 12 13 14
000
FTUS41 KILN 010900 AAA
TAFCMH
TAF AMD
KCMH 010953Z 0110/0206 35009KT P6SM BKN050
     FM011100 01010KT P6SM FEW050
     FM011500 35011KT P6SM SCT050
     FM012200 35006KT P6SM FEW060
     FM020200 VRB03KT P6SM SCT045=

USA.gov is the U.S. government's official web portal to all federal, state and local government web resources and services.